createdAt,value
2022-12-18T08:46:45.850Z,92.20
2022-12-18T08:57:56.356Z,90.79
2022-12-18T09:01:32.342Z,90.42
2022-12-18T09:05:05.083Z,85.74
2022-12-18T09:08:43.562Z,85.29
2022-12-18T09:12:23.411Z,85.32
2022-12-18T09:15:56.885Z,84.35
2022-12-18T09:19:20.960Z,84.62
2022-12-18T09:22:55.636Z,79.55
2022-12-18T09:26:40.973Z,83.53
2022-12-18T09:30:26.555Z,87.97
2022-12-18T09:34:24.726Z,88.90
2022-12-18T09:37:52.758Z,86.17
2022-12-18T09:41:42.542Z,83.24
2022-12-18T09:45:41.982Z,82.04
2022-12-18T09:49:28.647Z,86.99
2022-12-18T09:53:23.808Z,83.85
2022-12-18T09:57:00.436Z,84.01
2022-12-18T10:15:45.375Z,83.27
2022-12-18T10:18:59.415Z,85.48
2022-12-18T11:35:55.908Z,95.33
2022-12-18T11:39:03.969Z,95.16
2022-12-18T11:42:17.592Z,95.07
2022-12-18T11:45:32.193Z,95.25
2022-12-18T11:49:16.861Z,98.35
2022-12-18T11:52:25.267Z,96.14
2022-12-18T11:55:50.321Z,98.62
2022-12-18T11:59:17.609Z,96.29
2022-12-18T12:02:39.456Z,100.00
2022-12-18T12:06:27.860Z,100.00
2022-12-18T12:09:52.147Z,100.00
2022-12-18T14:39:00.718Z,100.00
2022-12-18T15:39:36.977Z,100.00
2022-12-18T15:43:25.375Z,100.00
2022-12-18T15:46:48.175Z,100.00
2022-12-18T15:50:11.918Z,100.00
2022-12-18T15:53:35.135Z,100.00
2022-12-18T15:57:24.211Z,100.00
2022-12-18T16:00:47.218Z,100.00
2022-12-18T16:04:30.723Z,100.00
2022-12-18T16:08:13.862Z,100.00
2022-12-18T16:12:20.547Z,100.00
2022-12-18T16:16:07.222Z,100.00
2022-12-18T16:19:45.980Z,100.00
2022-12-18T16:23:46.835Z,100.00
2022-12-18T16:31:14.583Z,100.00
2022-12-18T16:34:51.992Z,100.00
2022-12-18T16:38:29.534Z,100.00
2022-12-18T16:42:18.265Z,100.00
2022-12-18T16:45:53.200Z,100.00
2022-12-18T16:49:27.430Z,100.00
2022-12-18T16:53:02.572Z,100.00
2022-12-18T16:56:06.475Z,100.00
2022-12-18T16:59:30.111Z,100.00
2022-12-18T17:03:20.833Z,100.00
2022-12-18T17:06:54.680Z,100.00
2022-12-18T17:10:01.611Z,100.00
2022-12-18T17:13:27.572Z,100.00
2022-12-18T17:17:19.301Z,100.00
2022-12-18T17:20:35.659Z,100.00
2022-12-18T17:23:39.549Z,100.00
2022-12-18T17:26:43.835Z,100.00
2022-12-18T17:29:48.372Z,100.00
2022-12-18T17:32:51.786Z,100.00
2022-12-18T17:36:15.927Z,100.00
2022-12-18T17:39:23.022Z,100.00
2022-12-18T17:42:26.414Z,100.00
2022-12-18T17:45:29.601Z,100.00
2022-12-18T17:48:35.382Z,100.00
2022-12-18T17:51:41.570Z,100.00
2022-12-18T17:54:46.240Z,100.00
2022-12-18T17:57:56.173Z,100.00
2022-12-18T18:01:05.873Z,100.00
2022-12-18T18:04:09.759Z,100.00
2022-12-18T18:07:13.567Z,100.00
2022-12-18T18:10:25.201Z,100.00
2022-12-18T18:14:03.134Z,100.00
2022-12-18T18:17:14.757Z,100.00
2022-12-18T18:20:40.919Z,100.00
2022-12-18T18:23:45.157Z,100.00
2022-12-18T19:16:38.147Z,100.00
2022-12-18T19:19:41.200Z,100.00
2022-12-18T19:22:44.789Z,100.00
2022-12-18T19:26:26.910Z,100.00
2022-12-18T19:29:27.852Z,100.00
2022-12-18T19:32:31.504Z,100.00
2022-12-18T19:35:34.434Z,100.00
2022-12-18T19:38:38.231Z,100.00
2022-12-18T19:41:42.225Z,100.00
2022-12-18T19:44:45.598Z,100.00
2022-12-18T19:47:48.254Z,100.00
2022-12-18T19:50:51.153Z,100.00
2022-12-18T19:53:58.867Z,100.00
2022-12-18T19:57:02.881Z,100.00
2022-12-18T20:00:06.798Z,100.00
2022-12-18T20:03:24.274Z,100.00
2022-12-18T20:06:34.298Z,100.00
2022-12-18T20:09:37.080Z,100.00
2022-12-18T20:12:40.177Z,100.00
2022-12-18T20:15:45.265Z,100.00
2022-12-18T20:18:49.264Z,100.00
2022-12-18T20:21:52.413Z,100.00
2022-12-18T20:24:55.410Z,100.00
2022-12-18T20:27:58.234Z,100.00
2022-12-18T20:31:06.642Z,100.00
2022-12-18T20:34:09.548Z,100.00
2022-12-18T20:37:19.454Z,100.00
2022-12-18T20:40:24.124Z,100.00
2022-12-18T20:43:27.064Z,100.00
2022-12-18T20:46:29.744Z,100.00
2022-12-18T20:49:32.704Z,100.00
2022-12-18T20:52:35.317Z,100.00
2022-12-18T20:55:42.417Z,100.00
2022-12-18T20:58:45.706Z,100.00
2022-12-18T21:01:49.501Z,100.00
2022-12-18T21:04:53.337Z,100.00
2022-12-18T21:07:56.380Z,100.00
2022-12-18T21:11:47.089Z,100.00
2022-12-18T21:14:50.122Z,100.00
2022-12-18T21:17:53.113Z,100.00
2022-12-18T21:20:56.213Z,100.00
2022-12-18T21:23:59.032Z,100.00
2022-12-18T21:27:02.116Z,100.00
2022-12-18T21:30:05.616Z,100.00
2022-12-18T21:33:08.762Z,100.00
2022-12-18T21:36:12.209Z,100.00
2022-12-18T21:39:16.716Z,100.00
2022-12-18T21:42:37.897Z,100.00
2022-12-18T21:45:41.032Z,100.00
2022-12-18T21:48:44.234Z,100.00
2022-12-18T21:51:49.531Z,100.00
2022-12-18T21:54:52.255Z,100.00
2022-12-18T21:57:55.348Z,100.00
2022-12-18T22:00:58.123Z,100.00
2022-12-18T22:04:01.018Z,100.00
2022-12-18T22:07:05.272Z,100.00
2022-12-18T22:10:09.115Z,100.00
2022-12-18T22:13:11.793Z,100.00
2022-12-18T22:16:14.786Z,100.00
2022-12-18T22:19:18.234Z,100.00
2022-12-18T22:22:21.230Z,100.00
2022-12-18T22:25:23.823Z,100.00
2022-12-18T22:28:45.301Z,100.00
2022-12-18T22:31:48.250Z,100.00
2022-12-18T22:34:51.248Z,100.00
2022-12-18T22:37:53.901Z,100.00
2022-12-18T22:40:56.839Z,100.00
2022-12-18T22:43:59.732Z,100.00
2022-12-18T22:47:07.033Z,100.00
2022-12-18T22:50:14.799Z,100.00
2022-12-18T22:53:19.951Z,100.00
2022-12-18T22:56:22.826Z,100.00
2022-12-18T22:59:25.872Z,100.00
2022-12-18T23:02:28.655Z,100.00
2022-12-18T23:05:32.108Z,100.00
2022-12-18T23:08:35.049Z,100.00
2022-12-18T23:11:37.975Z,100.00
2022-12-18T23:14:40.524Z,100.00
2022-12-18T23:17:43.464Z,100.00
2022-12-18T23:20:46.514Z,100.00
2022-12-18T23:23:51.001Z,100.00
2022-12-18T23:26:53.888Z,100.00
2022-12-18T23:29:56.883Z,100.00
2022-12-18T23:33:01.404Z,100.00
2022-12-18T23:36:05.304Z,100.00
2022-12-18T23:39:07.929Z,100.00
2022-12-18T23:42:10.877Z,100.00
2022-12-18T23:45:17.853Z,100.00
2022-12-18T23:48:21.325Z,100.00
2022-12-18T23:51:25.690Z,100.00
2022-12-18T23:54:33.568Z,100.00
2022-12-18T23:57:36.425Z,100.00
